createdAt,value
2023-05-19T00:00:25.969Z,7.72
2023-05-19T00:01:01.288Z,10.23
2023-05-19T00:01:39.384Z,9.25
2023-05-19T00:02:15.947Z,8.27
2023-05-19T00:02:51.486Z,8.10
2023-05-19T00:03:26.078Z,6.72
2023-05-19T00:04:03.977Z,7.10
2023-05-19T00:04:41.181Z,7.72
2023-05-19T00:05:19.228Z,8.32
2023-05-19T00:05:55.832Z,6.45
2023-05-19T00:06:31.821Z,7.18
2023-05-19T00:07:09.010Z,6.38
2023-05-19T00:07:44.272Z,7.53
2023-05-19T00:08:19.538Z,7.38
2023-05-19T00:08:57.831Z,5.32
2023-05-19T00:09:32.937Z,6.88
2023-05-19T00:10:06.653Z,5.90
2023-05-19T00:10:42.176Z,6.70
2023-05-19T00:11:17.704Z,8.15
2023-05-19T00:11:53.157Z,6.40
2023-05-19T00:12:28.460Z,5.88
2023-05-19T00:13:04.332Z,7.90
2023-05-19T00:13:38.969Z,6.78
2023-05-19T00:14:13.258Z,9.10
2023-05-19T00:14:48.916Z,6.05
2023-05-19T00:15:24.645Z,6.18
2023-05-19T00:15:57.545Z,7.13
2023-05-19T00:16:33.138Z,7.28
2023-05-19T00:17:09.985Z,6.15
2023-05-19T00:17:43.496Z,5.97
2023-05-19T00:18:19.240Z,5.00
2023-05-19T00:18:54.895Z,6.13
2023-05-19T00:19:32.499Z,5.45
2023-05-19T00:20:09.125Z,6.28
2023-05-19T00:20:42.384Z,5.65
2023-05-19T00:21:15.435Z,5.57
2023-05-19T00:21:49.949Z,9.77
2023-05-19T00:22:23.983Z,6.93
2023-05-19T00:22:57.372Z,4.93
2023-05-19T00:23:32.061Z,7.22
2023-05-19T00:24:06.404Z,4.38
2023-05-19T00:24:40.174Z,4.22
2023-05-19T00:25:15.518Z,4.95
2023-05-19T00:25:49.851Z,4.93
2023-05-19T00:26:24.180Z,5.93
2023-05-19T00:27:09.972Z,7.50
2023-05-19T00:27:43.785Z,5.25
2023-05-19T00:28:17.904Z,7.88
2023-05-19T00:28:53.827Z,5.65
2023-05-19T00:29:28.190Z,4.40
2023-05-19T00:30:01.348Z,4.47
2023-05-19T00:30:35.550Z,4.95
2023-05-19T00:31:09.547Z,4.57
2023-05-19T00:31:43.688Z,7.25
2023-05-19T00:32:19.354Z,5.60
2023-05-19T00:32:52.937Z,6.55
2023-05-19T00:33:27.601Z,4.97
2023-05-19T00:34:02.713Z,10.88
2023-05-19T00:34:37.050Z,4.75
2023-05-19T00:35:11.337Z,5.30
2023-05-19T00:35:46.989Z,6.60
2023-05-19T00:36:21.222Z,6.68
2023-05-19T00:36:54.333Z,5.10
2023-05-19T00:37:28.623Z,5.18
2023-05-19T00:38:02.620Z,5.82
2023-05-19T00:38:37.376Z,6.30
2023-05-19T00:39:12.412Z,5.30
2023-05-19T00:39:46.685Z,4.43
2023-05-19T00:40:21.378Z,4.85
2023-05-19T00:40:56.265Z,4.55
2023-05-19T00:41:29.590Z,4.60
2023-05-19T00:42:04.031Z,5.50
2023-05-19T00:42:38.993Z,4.13
2023-05-19T00:43:13.034Z,4.72
2023-05-19T00:43:47.071Z,5.00
2023-05-19T00:44:21.696Z,5.15
2023-05-19T00:44:55.495Z,5.82
2023-05-19T00:45:30.934Z,4.97
2023-05-19T00:46:06.279Z,4.35
2023-05-19T00:46:40.736Z,4.82
2023-05-19T00:47:13.927Z,4.35
2023-05-19T00:47:50.142Z,4.82
2023-05-19T00:48:24.053Z,4.15
2023-05-19T00:48:58.610Z,4.45
2023-05-19T00:49:33.329Z,5.57
2023-05-19T00:50:07.033Z,7.90
2023-05-19T00:50:40.961Z,5.85
2023-05-19T00:51:17.156Z,6.72
2023-05-19T00:51:51.724Z,4.20
2023-05-19T00:52:25.895Z,4.25
2023-05-19T00:53:01.015Z,6.28
2023-05-19T00:53:35.358Z,4.25
2023-05-19T00:54:09.616Z,6.90
2023-05-19T00:54:45.850Z,3.88
2023-05-19T00:55:20.759Z,4.22
2023-05-19T00:55:55.422Z,4.40
2023-05-19T00:56:29.539Z,5.97
2023-05-19T00:57:03.675Z,4.30
2023-05-19T00:57:38.070Z,6.00
2023-05-19T00:58:14.474Z,4.32
2023-05-19T00:58:47.966Z,4.18
2023-05-19T00:59:23.263Z,6.97
2023-05-19T00:59:57.999Z,4.32
2023-05-19T01:00:31.479Z,3.47
2023-05-19T01:01:08.521Z,9.25
2023-05-19T01:01:43.032Z,3.55
2023-05-19T01:02:18.222Z,4.70
2023-05-19T01:02:54.866Z,4.05
2023-05-19T01:03:32.000Z,3.50
2023-05-19T01:04:06.453Z,4.38
2023-05-19T01:04:42.378Z,4.13
2023-05-19T01:05:16.937Z,4.00
2023-05-19T01:05:50.740Z,4.07
2023-05-19T01:06:28.414Z,4.18
2023-05-19T01:07:02.645Z,3.40
2023-05-19T01:07:36.036Z,3.13
2023-05-19T01:08:11.273Z,3.78
2023-05-19T01:08:44.974Z,3.42
2023-05-19T01:09:20.734Z,3.05
2023-05-19T01:09:54.399Z,3.25
2023-05-19T01:10:28.815Z,5.20
2023-05-19T01:11:02.925Z,2.50
2023-05-19T01:11:36.205Z,5.85
2023-05-19T01:12:09.965Z,3.25
2023-05-19T01:12:44.990Z,3.80
2023-05-19T01:13:18.410Z,3.33
2023-05-19T01:13:53.180Z,3.40
2023-05-19T01:14:27.318Z,3.38
2023-05-19T01:15:01.982Z,2.75
2023-05-19T01:15:51.298Z,3.13
2023-05-19T01:16:32.874Z,4.10
2023-05-19T01:17:15.045Z,4.55
2023-05-19T01:17:57.020Z,3.10
2023-05-19T01:18:46.467Z,2.30
2023-05-19T01:19:40.328Z,2.47
2023-05-19T01:20:21.081Z,2.53
2023-05-19T01:21:06.635Z,4.28
2023-05-19T01:22:02.037Z,3.88
2023-05-19T01:23:26.869Z,2.40
2023-05-19T01:24:13.823Z,5.10
2023-05-19T01:25:28.455Z,2.75
2023-05-19T01:26:43.280Z,3.00
2023-05-19T01:27:44.632Z,3.17
2023-05-19T01:28:39.148Z,3.50
2023-05-19T01:29:41.482Z,5.43
2023-05-19T01:30:38.393Z,4.80
2023-05-19T01:31:12.190Z,2.83
2023-05-19T01:31:49.179Z,2.60
2023-05-19T01:32:26.430Z,3.97
2023-05-19T01:33:02.808Z,5.32
2023-05-19T01:33:39.822Z,1.70
2023-05-19T01:34:14.919Z,4.13
2023-05-19T01:34:52.731Z,3.20
2023-05-19T01:35:28.362Z,2.85
2023-05-19T01:36:06.821Z,1.98
2023-05-19T01:36:44.866Z,2.45
2023-05-19T01:37:23.487Z,4.55
2023-05-19T01:37:59.411Z,3.47
2023-05-19T01:38:36.252Z,3.28
2023-05-19T01:39:10.902Z,1.90
2023-05-19T01:39:46.095Z,2.63
2023-05-19T01:40:22.177Z,3.03
2023-05-19T01:40:58.062Z,2.22
2023-05-19T01:41:34.426Z,2.05
2023-05-19T01:42:09.075Z,4.50
2023-05-19T01:42:43.311Z,5.35
2023-05-19T01:43:19.513Z,4.38
2023-05-19T01:43:54.992Z,2.60
2023-05-19T01:44:28.963Z,2.28
2023-05-19T01:45:03.316Z,2.08
2023-05-19T01:45:38.985Z,3.05
2023-05-19T01:46:14.115Z,2.30
2023-05-19T01:46:49.150Z,2.78
2023-05-19T01:47:24.267Z,3.10
2023-05-19T01:48:00.171Z,2.20
2023-05-19T01:48:34.189Z,3.08
2023-05-19T01:49:08.049Z,3.88
2023-05-19T01:49:43.548Z,4.47
2023-05-19T01:50:17.313Z,3.20
2023-05-19T01:50:51.520Z,2.15
2023-05-19T01:51:26.003Z,4.22
2023-05-19T01:51:59.698Z,2.00
2023-05-19T01:52:33.191Z,2.22
2023-05-19T01:53:07.974Z,4.20
2023-05-19T01:53:41.992Z,2.55
2023-05-19T01:54:16.186Z,2.92
2023-05-19T01:54:51.598Z,2.92
2023-05-19T01:55:24.575Z,4.28
2023-05-19T01:55:58.923Z,3.53
2023-05-19T01:56:40.630Z,3.25
2023-05-19T01:57:16.965Z,3.10
2023-05-19T01:57:57.566Z,2.15
2023-05-19T01:58:40.187Z,2.80
2023-05-19T01:59:22.552Z,2.75
2023-05-19T02:00:05.733Z,3.38
2023-05-19T02:00:54.436Z,2.17
2023-05-19T02:01:32.887Z,7.13
2023-05-19T02:02:10.607Z,6.85
2023-05-19T02:02:50.316Z,4.53
2023-05-19T02:03:30.901Z,3.13
2023-05-19T02:04:13.733Z,3.63
2023-05-19T02:04:53.874Z,9.55
2023-05-19T02:05:33.763Z,4.25
2023-05-19T02:06:15.185Z,5.15
2023-05-19T02:06:51.636Z,5.00
2023-05-19T02:07:27.811Z,2.97
2023-05-19T02:08:07.975Z,3.03
2023-05-19T02:08:44.999Z,3.83
2023-05-19T02:09:28.283Z,3.20
2023-05-19T02:10:08.005Z,7.18
2023-05-19T02:10:44.369Z,3.85
2023-05-19T02:11:23.404Z,3.70
2023-05-19T02:11:58.190Z,6.20
2023-05-19T02:12:34.375Z,7.68
2023-05-19T02:13:09.312Z,6.90
2023-05-19T02:13:45.713Z,7.47
2023-05-19T02:14:21.237Z,6.88
2023-05-19T02:15:00.629Z,4.22
2023-05-19T02:15:35.680Z,3.40
2023-05-19T02:16:13.410Z,3.17
2023-05-19T02:16:50.130Z,1.92
2023-05-19T02:17:24.504Z,6.28
2023-05-19T02:18:00.895Z,8.90
2023-05-19T02:18:36.706Z,11.40
2023-05-19T02:19:21.442Z,2.28
2023-05-19T02:19:56.343Z,3.72
2023-05-19T02:20:31.562Z,2.58
2023-05-19T02:21:05.045Z,3.80
2023-05-19T02:21:38.692Z,3.38
2023-05-19T02:22:14.119Z,2.95
2023-05-19T02:22:47.473Z,7.28
2023-05-19T02:23:21.184Z,3.55
2023-05-19T02:23:56.332Z,5.28
2023-05-19T02:24:29.807Z,6.85
2023-05-19T02:25:05.609Z,7.85
2023-05-19T02:25:41.939Z,3.40
2023-05-19T02:26:16.227Z,3.70
2023-05-19T02:26:49.639Z,4.90
2023-05-19T02:27:26.456Z,3.28
2023-05-19T02:28:00.549Z,3.30
2023-05-19T02:28:37.275Z,4.95
2023-05-19T02:29:12.799Z,7.22
2023-05-19T02:29:46.429Z,4.75
2023-05-19T02:30:20.185Z,5.25
2023-05-19T02:30:54.645Z,5.03
2023-05-19T02:31:30.608Z,4.38
2023-05-19T02:32:04.647Z,5.13
2023-05-19T02:32:39.107Z,3.78
2023-05-19T02:33:12.899Z,4.93
2023-05-19T02:33:46.679Z,3.67
2023-05-19T02:34:22.349Z,4.45
2023-05-19T02:34:57.190Z,6.10
2023-05-19T02:35:30.902Z,17.58
2023-05-19T02:36:05.896Z,7.32
2023-05-19T02:36:41.880Z,4.88
2023-05-19T02:37:16.286Z,5.20
2023-05-19T02:37:50.479Z,5.97
2023-05-19T02:38:24.541Z,5.47
2023-05-19T02:39:01.143Z,6.18
2023-05-19T02:39:37.742Z,5.25
2023-05-19T02:40:12.853Z,6.00
2023-05-19T02:40:47.030Z,4.22
2023-05-19T02:41:22.800Z,4.70
2023-05-19T02:41:55.926Z,5.13
2023-05-19T02:42:29.232Z,4.78
2023-05-19T02:43:04.166Z,6.53
2023-05-19T02:43:37.434Z,4.82
2023-05-19T02:44:10.942Z,6.65
2023-05-19T02:44:45.115Z,3.90
2023-05-19T02:45:19.462Z,4.30
2023-05-19T02:45:53.299Z,4.22
2023-05-19T02:46:28.948Z,5.20
2023-05-19T02:47:04.332Z,4.35
2023-05-19T02:47:38.771Z,7.53
2023-05-19T02:48:13.815Z,5.93
2023-05-19T02:48:47.354Z,4.07
2023-05-19T02:49:21.700Z,3.13
2023-05-19T02:49:55.945Z,4.30
2023-05-19T02:50:29.979Z,5.45
2023-05-19T02:51:05.301Z,4.13
2023-05-19T02:51:40.831Z,4.72
2023-05-19T02:52:14.068Z,5.10
2023-05-19T02:52:48.165Z,5.45
2023-05-19T02:53:24.138Z,3.53
2023-05-19T02:53:57.976Z,3.67
2023-05-19T02:54:31.210Z,6.38
2023-05-19T02:55:06.831Z,6.05
2023-05-19T02:55:40.895Z,4.55
2023-05-19T02:56:14.429Z,5.35
2023-05-19T02:56:48.929Z,6.75
2023-05-19T02:57:22.912Z,4.47
2023-05-19T02:57:56.775Z,5.30
2023-05-19T02:58:31.354Z,6.25
2023-05-19T02:59:06.833Z,17.58
2023-05-19T02:59:41.211Z,4.63
2023-05-19T03:00:16.786Z,6.20
2023-05-19T03:00:52.405Z,4.20
2023-05-19T03:01:26.965Z,5.60
2023-05-19T03:02:02.996Z,9.13
2023-05-19T03:02:37.373Z,5.47
2023-05-19T03:03:11.398Z,4.25
2023-05-19T03:03:46.129Z,6.68
2023-05-19T03:04:21.181Z,4.43
2023-05-19T03:04:55.329Z,4.57
2023-05-19T03:05:28.758Z,5.82
2023-05-19T03:06:03.673Z,4.97
2023-05-19T03:06:39.267Z,5.05
2023-05-19T03:07:13.692Z,5.53
2023-05-19T03:07:48.120Z,8.00
2023-05-19T03:08:21.458Z,4.28
2023-05-19T03:08:55.421Z,3.65
2023-05-19T03:09:30.758Z,6.63
2023-05-19T03:10:04.922Z,4.90
2023-05-19T03:10:39.000Z,4.05
2023-05-19T03:11:13.838Z,3.55
2023-05-19T03:11:46.989Z,4.82
2023-05-19T03:12:20.220Z,4.95
2023-05-19T03:12:55.924Z,4.82
2023-05-19T03:13:30.247Z,6.13
2023-05-19T03:14:04.129Z,7.28
2023-05-19T03:14:40.110Z,4.07
2023-05-19T03:15:15.083Z,4.40
2023-05-19T03:15:51.225Z,5.63
2023-05-19T03:16:27.344Z,4.45
2023-05-19T03:17:00.357Z,4.80
2023-05-19T03:17:35.531Z,4.57
2023-05-19T03:18:12.690Z,5.47
2023-05-19T03:18:46.316Z,5.90
2023-05-19T03:19:20.887Z,6.72
2023-05-19T03:19:56.432Z,4.82
2023-05-19T03:20:31.010Z,7.78
2023-05-19T03:21:05.704Z,4.45
2023-05-19T03:21:41.428Z,4.00
2023-05-19T03:22:15.211Z,8.90
2023-05-19T03:22:49.605Z,6.97
2023-05-19T03:23:22.707Z,5.93
2023-05-19T03:23:56.908Z,7.30
2023-05-19T03:24:30.171Z,9.70
2023-05-19T03:25:04.137Z,8.70
2023-05-19T03:25:39.616Z,4.35
2023-05-19T03:26:13.329Z,4.82
2023-05-19T03:26:48.403Z,5.93
2023-05-19T03:27:22.402Z,4.05
2023-05-19T03:27:56.680Z,5.15
2023-05-19T03:28:30.323Z,5.38
2023-05-19T03:29:05.107Z,4.05
2023-05-19T03:29:43.073Z,4.97
2023-05-19T03:30:17.121Z,4.85
2023-05-19T03:31:25.022Z,5.50
2023-05-19T03:31:59.913Z,5.25
2023-05-19T03:32:34.641Z,5.60
2023-05-19T03:33:12.361Z,7.80
2023-05-19T03:33:47.765Z,4.40
2023-05-19T03:34:22.498Z,12.75
2023-05-19T03:34:58.005Z,4.25
2023-05-19T03:35:32.978Z,4.72
2023-05-19T03:36:10.725Z,8.00
2023-05-19T03:36:46.173Z,5.72
2023-05-19T03:37:22.355Z,5.05
2023-05-19T03:37:56.097Z,4.82
2023-05-19T03:38:30.811Z,4.90
2023-05-19T03:39:05.518Z,5.93
2023-05-19T03:39:40.408Z,7.40
2023-05-19T03:40:19.462Z,4.15
2023-05-19T03:40:53.912Z,4.93
2023-05-19T03:41:27.941Z,8.30
2023-05-19T03:42:04.572Z,7.35
2023-05-19T03:42:39.271Z,4.10
2023-05-19T03:43:13.413Z,5.53
2023-05-19T03:43:56.368Z,4.60
2023-05-19T03:44:30.128Z,9.10
2023-05-19T03:45:08.420Z,5.15
2023-05-19T03:45:42.908Z,4.90
2023-05-19T03:46:39.910Z,4.90
2023-05-19T03:47:33.579Z,13.48
2023-05-19T03:48:29.256Z,6.18
2023-05-19T03:49:22.264Z,12.40
2023-05-19T03:50:15.683Z,5.85
2023-05-19T03:51:00.367Z,6.88
2023-05-19T03:51:35.002Z,13.60
2023-05-19T03:52:18.956Z,5.80
2023-05-19T03:53:13.424Z,10.25
2023-05-19T03:53:49.332Z,5.45
2023-05-19T03:54:27.074Z,4.57
2023-05-19T03:55:01.204Z,6.70
2023-05-19T03:55:37.414Z,8.18
2023-05-19T03:56:13.980Z,7.43
2023-05-19T03:56:48.139Z,6.30
2023-05-19T03:57:22.863Z,7.78
2023-05-19T03:57:56.622Z,4.40
2023-05-19T03:58:30.387Z,6.65
2023-05-19T03:59:06.282Z,5.43
2023-05-19T03:59:42.103Z,4.00
2023-05-19T04:00:17.998Z,5.00
2023-05-19T04:00:52.807Z,7.70
2023-05-19T04:01:25.887Z,4.85
2023-05-19T04:01:58.893Z,5.97
2023-05-19T04:02:33.963Z,9.02
2023-05-19T04:03:08.913Z,5.38
2023-05-19T04:03:44.068Z,5.93
2023-05-19T04:04:18.069Z,9.18
2023-05-19T04:04:54.116Z,5.30
2023-05-19T04:05:28.283Z,7.35
2023-05-19T04:06:03.023Z,6.45
2023-05-19T04:06:37.314Z,5.55
2023-05-19T04:07:12.146Z,6.90
2023-05-19T04:07:47.884Z,6.57
2023-05-19T04:08:22.475Z,5.15
2023-05-19T04:08:56.058Z,5.63
2023-05-19T04:09:35.289Z,5.65
2023-05-19T04:10:11.215Z,6.68
2023-05-19T04:10:45.991Z,4.45
2023-05-19T04:11:22.194Z,10.98
2023-05-19T04:11:56.230Z,6.05
2023-05-19T04:12:32.193Z,4.90
2023-05-19T04:13:05.316Z,6.90
2023-05-19T04:13:38.951Z,6.00
2023-05-19T04:14:13.813Z,7.13
2023-05-19T04:14:47.246Z,5.07
2023-05-19T04:15:20.965Z,7.38
2023-05-19T04:15:56.145Z,4.78
2023-05-19T04:16:30.029Z,9.18
2023-05-19T04:17:04.470Z,7.55
2023-05-19T04:17:40.165Z,5.05
2023-05-19T04:18:14.145Z,6.03
2023-05-19T04:18:49.239Z,8.20
2023-05-19T04:19:26.054Z,8.35
2023-05-19T04:20:02.217Z,6.07
2023-05-19T04:20:36.042Z,8.35
2023-05-19T04:21:11.165Z,6.63
2023-05-19T04:21:45.449Z,6.25
2023-05-19T04:22:19.632Z,7.60
2023-05-19T04:22:55.000Z,7.15
2023-05-19T04:23:29.293Z,5.68
2023-05-19T04:24:02.720Z,5.07
2023-05-19T04:24:39.048Z,7.15
2023-05-19T04:25:12.903Z,6.53
2023-05-19T04:25:49.405Z,3.90
2023-05-19T04:26:24.988Z,5.07
2023-05-19T04:27:03.125Z,8.35
2023-05-19T04:27:39.078Z,5.40
2023-05-19T04:28:14.436Z,5.95
2023-05-19T04:28:49.027Z,8.20
2023-05-19T04:29:24.889Z,5.30
2023-05-19T04:29:59.553Z,7.15
2023-05-19T04:30:35.094Z,7.32
2023-05-19T04:31:11.257Z,5.43
2023-05-19T04:31:44.982Z,5.20
2023-05-19T04:32:18.221Z,4.85
2023-05-19T04:32:53.494Z,4.70
2023-05-19T04:33:30.065Z,5.30
2023-05-19T04:34:05.926Z,4.13
2023-05-19T04:34:46.252Z,6.18
2023-05-19T04:35:26.356Z,6.45
2023-05-19T04:36:06.035Z,5.80
2023-05-19T04:36:41.773Z,7.47
2023-05-19T04:37:16.546Z,8.05
2023-05-19T04:37:50.553Z,4.72
2023-05-19T04:38:30.744Z,4.82
2023-05-19T04:39:08.227Z,10.45
2023-05-19T04:39:43.515Z,7.07
2023-05-19T04:40:21.264Z,7.30
2023-05-19T04:40:55.409Z,6.68
2023-05-19T04:41:29.081Z,8.48
2023-05-19T04:42:04.715Z,6.40
2023-05-19T04:42:42.410Z,8.02
2023-05-19T04:43:18.707Z,5.72
2023-05-19T04:43:54.967Z,9.32
2023-05-19T04:44:31.055Z,5.63
2023-05-19T04:45:08.917Z,5.25
2023-05-19T04:45:50.851Z,5.57
2023-05-19T04:46:27.115Z,6.93
2023-05-19T04:47:02.367Z,6.65
2023-05-19T04:47:37.639Z,7.00
2023-05-19T04:48:12.995Z,8.55
2023-05-19T04:48:46.864Z,7.03
2023-05-19T04:49:25.015Z,6.60
2023-05-19T04:50:01.396Z,6.97
2023-05-19T04:50:39.284Z,6.10
2023-05-19T04:51:14.424Z,6.13
2023-05-19T04:51:50.595Z,6.55
2023-05-19T04:52:29.286Z,5.97
2023-05-19T04:53:03.151Z,5.40
2023-05-19T04:53:40.975Z,7.55
2023-05-19T04:54:17.011Z,6.03
2023-05-19T04:54:51.504Z,5.28
2023-05-19T04:55:26.220Z,7.70
2023-05-19T04:56:01.605Z,7.75
2023-05-19T04:56:37.938Z,12.00
2023-05-19T04:57:11.640Z,5.85
2023-05-19T04:57:47.654Z,6.10
2023-05-19T04:58:22.004Z,5.65
2023-05-19T04:58:56.051Z,9.35
2023-05-19T04:59:29.556Z,6.15
2023-05-19T05:00:09.146Z,7.25
2023-05-19T05:00:52.861Z,7.65
2023-05-19T05:01:27.367Z,6.03
2023-05-19T05:02:02.500Z,7.45
2023-05-19T05:02:37.900Z,7.40
2023-05-19T05:03:15.312Z,5.82
2023-05-19T05:03:49.685Z,7.05
2023-05-19T05:04:26.185Z,6.82
2023-05-19T05:05:01.726Z,9.10
2023-05-19T05:05:36.111Z,9.38
2023-05-19T05:06:10.133Z,7.22
2023-05-19T05:06:48.812Z,6.75
2023-05-19T05:07:22.880Z,5.47
2023-05-19T05:07:59.268Z,6.72
2023-05-19T05:08:40.702Z,7.88
2023-05-19T05:09:15.211Z,8.60
2023-05-19T05:09:48.800Z,10.65
2023-05-19T05:10:22.239Z,9.93
2023-05-19T05:10:57.825Z,9.65
2023-05-19T05:11:34.132Z,12.15
2023-05-19T05:12:08.173Z,10.43
2023-05-19T05:12:44.250Z,11.48
2023-05-19T05:13:18.428Z,10.23
2023-05-19T05:13:58.251Z,9.20
2023-05-19T05:14:35.349Z,8.27
2023-05-19T05:15:11.257Z,7.55
2023-05-19T05:15:46.771Z,7.47
2023-05-19T05:16:21.406Z,8.55
2023-05-19T05:16:57.630Z,7.18
2023-05-19T05:17:32.604Z,8.40
2023-05-19T05:18:08.489Z,6.68
2023-05-19T05:18:45.108Z,5.32
2023-05-19T05:19:19.091Z,11.35
2023-05-19T05:19:55.907Z,9.68
2023-05-19T05:20:31.631Z,9.73
2023-05-19T05:21:06.824Z,7.78
2023-05-19T05:21:42.673Z,9.18
2023-05-19T05:22:17.831Z,8.43
2023-05-19T05:22:54.152Z,8.30
2023-05-19T05:23:30.458Z,9.50
2023-05-19T05:24:06.073Z,7.47
2023-05-19T05:24:42.348Z,9.20
2023-05-19T05:25:18.630Z,6.70
2023-05-19T05:25:54.220Z,12.43
2023-05-19T05:26:33.837Z,7.78
2023-05-19T05:27:09.001Z,5.63
2023-05-19T05:27:43.838Z,10.52
2023-05-19T05:28:19.031Z,8.48
2023-05-19T05:28:54.430Z,6.60
2023-05-19T05:29:29.216Z,6.80
2023-05-19T05:30:04.414Z,8.57
2023-05-19T05:30:58.689Z,10.27
2023-05-19T05:31:33.135Z,8.00
2023-05-19T05:32:07.435Z,8.43
2023-05-19T05:32:41.876Z,8.50
2023-05-19T05:33:25.594Z,6.63
2023-05-19T05:33:59.777Z,10.95
2023-05-19T05:34:38.256Z,7.25
2023-05-19T05:35:15.026Z,8.02
2023-05-19T05:35:50.197Z,9.13
2023-05-19T05:36:24.257Z,9.85
2023-05-19T05:36:59.144Z,7.53
2023-05-19T05:37:33.051Z,15.20
2023-05-19T05:38:08.360Z,7.05
2023-05-19T05:38:44.157Z,7.38
2023-05-19T05:39:18.181Z,8.90
2023-05-19T05:39:52.972Z,10.63
2023-05-19T05:40:27.056Z,7.45
2023-05-19T05:41:03.310Z,7.47
2023-05-19T05:41:39.539Z,8.07
2023-05-19T05:42:17.912Z,8.88
2023-05-19T05:42:53.361Z,7.50
2023-05-19T05:43:29.443Z,7.07
2023-05-19T05:44:08.102Z,7.70
2023-05-19T05:44:41.287Z,9.75
2023-05-19T05:45:19.155Z,10.50
2023-05-19T05:45:53.795Z,7.88
2023-05-19T05:46:27.314Z,8.63
2023-05-19T05:47:03.243Z,13.52
2023-05-19T05:47:39.141Z,11.90
2023-05-19T05:48:15.374Z,11.82
2023-05-19T05:48:52.120Z,6.95
2023-05-19T05:49:26.223Z,9.02
2023-05-19T05:50:01.961Z,11.27
2023-05-19T05:50:39.352Z,9.05
2023-05-19T05:51:14.899Z,9.23
2023-05-19T05:52:04.416Z,7.65
2023-05-19T05:52:44.670Z,7.00
2023-05-19T05:53:20.308Z,11.38
2023-05-19T05:53:57.895Z,11.30
2023-05-19T05:54:39.054Z,7.82
2023-05-19T05:55:15.359Z,7.68
2023-05-19T05:55:48.988Z,8.50
2023-05-19T05:56:23.935Z,7.32
2023-05-19T05:57:03.582Z,9.55
2023-05-19T05:57:37.487Z,7.40
2023-05-19T05:58:11.924Z,6.80
2023-05-19T05:58:46.661Z,6.10
2023-05-19T05:59:20.891Z,7.00
2023-05-19T05:59:55.677Z,8.32
2023-05-19T06:00:30.550Z,7.72
2023-05-19T06:01:04.897Z,9.63
2023-05-19T06:01:40.310Z,9.27
2023-05-19T06:02:15.813Z,7.80
2023-05-19T06:02:52.028Z,8.35
2023-05-19T06:03:27.857Z,8.40
2023-05-19T06:04:04.994Z,8.80
2023-05-19T06:04:40.023Z,10.63
2023-05-19T06:05:14.743Z,7.20
2023-05-19T06:05:51.644Z,11.00
2023-05-19T06:06:26.045Z,6.95
2023-05-19T06:07:03.036Z,8.98
2023-05-19T06:07:41.821Z,8.73
2023-05-19T06:08:18.247Z,9.85
2023-05-19T06:08:54.013Z,7.68
2023-05-19T06:09:29.928Z,9.18
2023-05-19T06:10:04.977Z,8.77
2023-05-19T06:10:43.605Z,9.15
2023-05-19T06:11:20.297Z,9.30
2023-05-19T06:11:54.931Z,9.85
2023-05-19T06:12:30.153Z,10.75
2023-05-19T06:13:03.525Z,8.20
2023-05-19T06:13:38.370Z,11.60
2023-05-19T06:14:17.285Z,7.93
2023-05-19T06:15:30.040Z,10.27
2023-05-19T06:16:17.304Z,9.80
2023-05-19T06:16:53.098Z,9.45
2023-05-19T06:17:26.770Z,9.85
2023-05-19T06:18:02.054Z,8.88
2023-05-19T06:18:36.680Z,12.82
2023-05-19T06:19:10.203Z,8.77
2023-05-19T06:19:45.237Z,14.02
2023-05-19T06:20:18.942Z,9.25
2023-05-19T06:20:54.800Z,7.88
2023-05-19T06:21:29.352Z,9.82
2023-05-19T06:22:03.803Z,13.73
2023-05-19T06:22:38.178Z,9.60
2023-05-19T06:23:12.553Z,11.23
2023-05-19T06:23:48.494Z,14.77
2023-05-19T06:24:22.301Z,11.45
2023-05-19T06:24:55.621Z,11.38
2023-05-19T06:25:30.010Z,10.85
2023-05-19T06:26:04.253Z,13.43
2023-05-19T06:26:39.277Z,10.13
2023-05-19T06:27:14.094Z,9.65
2023-05-19T06:27:48.470Z,8.98
2023-05-19T06:28:23.801Z,9.13
2023-05-19T06:28:58.130Z,10.32
2023-05-19T06:29:31.888Z,9.75
2023-05-19T06:30:11.058Z,8.90
2023-05-19T06:30:55.318Z,8.35
2023-05-19T06:31:50.708Z,11.77
2023-05-19T06:32:25.141Z,11.63
2023-05-19T06:32:59.126Z,10.23
2023-05-19T06:33:34.393Z,12.55
2023-05-19T06:34:07.699Z,11.70
2023-05-19T06:34:42.020Z,12.68
2023-05-19T06:35:18.483Z,13.48
2023-05-19T06:35:54.093Z,14.30
2023-05-19T06:36:28.968Z,12.43
2023-05-19T06:37:05.105Z,11.43
2023-05-19T06:37:40.351Z,10.57
2023-05-19T06:38:15.102Z,11.32
2023-05-19T06:38:49.126Z,9.57
2023-05-19T06:39:27.285Z,10.90
2023-05-19T06:40:01.609Z,9.57
2023-05-19T06:40:36.406Z,11.13
2023-05-19T06:41:10.518Z,9.07
2023-05-19T06:41:45.297Z,12.00
2023-05-19T06:42:32.771Z,10.80
2023-05-19T06:43:22.247Z,11.25
2023-05-19T06:44:01.957Z,9.93
2023-05-19T06:44:38.692Z,11.85
2023-05-19T06:45:21.830Z,12.63
2023-05-19T06:45:57.909Z,10.13
2023-05-19T06:46:35.079Z,9.48
2023-05-19T06:47:08.733Z,10.20
2023-05-19T06:47:42.912Z,13.95
2023-05-19T06:48:18.686Z,10.82
2023-05-19T06:48:53.889Z,11.27
2023-05-19T06:49:31.411Z,11.43
2023-05-19T06:50:08.238Z,10.80
2023-05-19T06:50:44.192Z,7.60
2023-05-19T06:51:21.971Z,9.90
2023-05-19T06:52:02.099Z,14.32
2023-05-19T06:52:35.863Z,12.48
2023-05-19T06:53:10.539Z,10.80
2023-05-19T06:53:45.127Z,12.10
2023-05-19T06:54:20.034Z,9.68
2023-05-19T06:54:54.705Z,9.73
2023-05-19T06:55:28.277Z,13.10
2023-05-19T06:56:01.434Z,9.88
2023-05-19T06:56:41.237Z,13.50
2023-05-19T06:57:15.442Z,10.98
2023-05-19T06:57:49.583Z,11.75
2023-05-19T06:58:25.808Z,10.18
2023-05-19T06:58:59.529Z,10.95
2023-05-19T06:59:41.536Z,9.55
2023-05-19T07:00:19.947Z,10.18
2023-05-19T07:00:58.143Z,9.85
2023-05-19T07:01:37.698Z,11.10
2023-05-19T07:02:13.363Z,13.73
2023-05-19T07:02:48.653Z,11.38
2023-05-19T07:03:23.050Z,13.93
2023-05-19T07:03:56.349Z,11.18
2023-05-19T07:04:30.649Z,15.57
2023-05-19T07:05:04.373Z,9.77
2023-05-19T07:05:38.341Z,10.27
2023-05-19T07:06:14.342Z,8.85
2023-05-19T07:06:50.942Z,11.48
2023-05-19T07:07:26.956Z,10.65
2023-05-19T07:08:01.815Z,9.80
2023-05-19T07:08:38.776Z,15.00
2023-05-19T07:09:14.416Z,15.00
2023-05-19T07:09:49.962Z,9.90
2023-05-19T07:10:23.947Z,9.52
2023-05-19T07:11:00.539Z,9.15
2023-05-19T07:11:35.409Z,13.65
2023-05-19T07:12:10.495Z,10.82
2023-05-19T07:12:45.493Z,14.05
2023-05-19T07:13:19.409Z,10.13
2023-05-19T07:13:55.729Z,13.18
2023-05-19T07:14:33.778Z,11.48
2023-05-19T07:15:09.312Z,9.20
2023-05-19T07:15:44.450Z,17.95
2023-05-19T07:16:17.863Z,11.43
2023-05-19T07:16:52.583Z,10.57
2023-05-19T07:17:26.286Z,10.40
2023-05-19T07:18:00.320Z,13.25
2023-05-19T07:18:35.561Z,12.05
2023-05-19T07:19:09.224Z,9.52
2023-05-19T07:19:43.985Z,9.38
2023-05-19T07:20:19.604Z,11.98
2023-05-19T07:20:53.329Z,11.85
2023-05-19T07:21:28.850Z,12.63
2023-05-19T07:22:05.048Z,8.18
2023-05-19T07:22:40.856Z,11.35
2023-05-19T07:23:16.050Z,10.15
2023-05-19T07:23:53.858Z,9.75
2023-05-19T07:24:29.675Z,13.32
2023-05-19T07:25:03.418Z,11.23
2023-05-19T07:25:38.065Z,11.13
2023-05-19T07:26:12.626Z,11.45
2023-05-19T07:26:47.182Z,10.93
2023-05-19T07:27:21.498Z,12.60
2023-05-19T07:27:56.183Z,10.50
2023-05-19T07:28:30.606Z,10.05
2023-05-19T07:29:05.195Z,10.52
2023-05-19T07:29:38.610Z,10.70
2023-05-19T07:30:13.632Z,9.45
2023-05-19T07:30:50.010Z,12.10
2023-05-19T07:31:23.310Z,12.98
2023-05-19T07:31:58.995Z,13.57
2023-05-19T07:32:33.927Z,11.05
2023-05-19T07:33:08.944Z,14.93
2023-05-19T07:33:44.425Z,12.82
2023-05-19T07:34:18.450Z,10.35
2023-05-19T07:34:52.621Z,12.20
2023-05-19T07:35:27.078Z,14.70
2023-05-19T07:36:02.112Z,11.48
2023-05-19T07:36:38.098Z,13.68
2023-05-19T07:37:13.203Z,12.13
2023-05-19T07:37:47.896Z,11.65
2023-05-19T07:38:22.108Z,10.20
2023-05-19T07:38:56.968Z,11.48
2023-05-19T07:39:32.482Z,11.55
2023-05-19T07:40:06.949Z,11.73
2023-05-19T07:40:42.507Z,14.30
2023-05-19T07:41:16.665Z,16.23
2023-05-19T07:41:55.761Z,12.55
2023-05-19T07:42:28.940Z,10.27
2023-05-19T07:43:03.257Z,14.55
2023-05-19T07:43:36.497Z,10.68
2023-05-19T07:44:11.281Z,12.10
2023-05-19T07:44:47.006Z,14.23
2023-05-19T07:45:21.300Z,10.93
2023-05-19T07:45:56.388Z,15.13
2023-05-19T07:46:32.314Z,15.48
2023-05-19T07:47:07.455Z,12.68
2023-05-19T07:47:41.982Z,12.35
2023-05-19T07:48:15.095Z,16.33
2023-05-19T07:48:49.167Z,16.38
2023-05-19T07:49:26.281Z,11.43
2023-05-19T07:50:00.412Z,11.13
2023-05-19T07:50:34.889Z,12.10
2023-05-19T07:51:10.436Z,12.38
2023-05-19T07:51:44.585Z,13.35
2023-05-19T07:52:20.260Z,11.82
2023-05-19T07:52:54.571Z,13.05
2023-05-19T07:53:30.174Z,10.52
2023-05-19T07:54:04.454Z,14.65
2023-05-19T07:54:39.974Z,11.43
2023-05-19T07:55:15.484Z,9.90
2023-05-19T07:55:50.370Z,11.75
2023-05-19T07:56:24.974Z,11.07
2023-05-19T07:57:00.580Z,11.65
2023-05-19T07:57:33.707Z,9.65
2023-05-19T07:58:08.516Z,11.45
2023-05-19T07:58:42.087Z,10.70